Time;durP1;ratioP1;P1;durP2;ratioP2;P2;SDS_P1;SDS_P2;PMS_P1;PMS_P2;Temp;Humidity;BMP_temperature;BMP_pressure;BME280_temperature;BME280_humidity;BME280_pressure;Samples;Min_cycle;Max_cycle;Signal;HPM_P1;HPM_P2
2021/09/17 00:01:58;;;;;;;31.43;17.33;;;14.70;99.90;;;;;;5065871;28;20206;-79
2021/09/17 00:04:25;;;;;;;26.77;15.67;;;14.60;99.90;;;;;;5068336;28;20203;-79
2021/09/17 00:06:52;;;;;;;28.13;15.27;;;14.60;99.90;;;;;;5064061;28;20606;-79
2021/09/17 00:09:20;;;;;;;29.23;15.43;;;14.70;99.90;;;;;;5073954;28;20692;-79
2021/09/17 00:11:48;;;;;;;24.77;15.53;;;14.60;99.90;;;;;;5073964;28;20223;-79
2021/09/17 00:14:17;;;;;;;28.50;17.00;;;14.60;99.90;;;;;;5073606;28;20203;-79
2021/09/17 00:16:44;;;;;;;32.33;17.93;;;14.70;99.90;;;;;;5073622;28;20657;-79
2021/09/17 00:19:11;;;;;;;27.00;16.87;;;14.70;99.90;;;;;;5073431;28;20206;-79
2021/09/17 00:21:39;;;;;;;27.17;16.83;;;14.70;99.90;;;;;;5073880;28;20386;-79
2021/09/17 00:24:06;;;;;;;32.17;18.93;;;14.60;99.90;;;;;;5073533;28;20577;-80
2021/09/17 00:26:33;;;;;;;27.60;16.83;;;14.60;99.90;;;;;;5073312;28;20195;-79
2021/09/17 00:29:00;;;;;;;33.53;19.00;;;14.60;99.90;;;;;;5073529;28;20204;-79
2021/09/17 00:31:29;;;;;;;34.97;18.80;;;14.60;99.90;;;;;;5073549;28;20233;-79
2021/09/17 00:33:56;;;;;;;29.93;18.13;;;14.60;99.90;;;;;;5073238;28;20290;-79
2021/09/17 00:36:23;;;;;;;32.27;18.67;;;14.70;99.90;;;;;;5073187;28;20210;-79
2021/09/17 00:38:51;;;;;;;37.67;19.80;;;14.70;99.90;;;;;;5073531;28;20204;-80
2021/09/17 00:41:18;;;;;;;31.20;18.87;;;14.70;99.90;;;;;;5073054;28;20204;-79
2021/09/17 00:43:45;;;;;;;35.20;20.20;;;14.60;99.90;;;;;;5073143;28;20322;-79
2021/09/17 00:46:12;;;;;;;38.93;22.07;;;14.60;99.90;;;;;;5073478;28;20203;-79
2021/09/17 00:48:41;;;;;;;37.10;21.13;;;14.60;99.90;;;;;;5075487;28;20210;-79
2021/09/17 00:51:08;;;;;;;37.90;20.43;;;14.60;99.90;;;;;;5077102;28;20306;-79
2021/09/17 00:53:35;;;;;;;38.87;20.67;;;14.50;99.90;;;;;;5072840;28;20205;-79
2021/09/17 00:56:04;;;;;;;44.80;22.00;;;14.60;99.90;;;;;;5072982;28;20207;-79
2021/09/17 00:58:32;;;;;;;40.23;21.60;;;14.50;99.90;;;;;;5072735;28;20204;-79
2021/09/17 01:00:59;;;;;;;42.83;22.03;;;14.60;99.90;;;;;;5073072;28;20207;-79
2021/09/17 01:03:28;;;;;;;43.47;22.03;;;14.50;99.90;;;;;;5073207;28;20208;-79
2021/09/17 01:06:00;;;;;;;33.60;19.90;;;14.40;99.90;;;;;;5072824;28;20288;-79
2021/09/17 01:08:27;;;;;;;38.30;21.90;;;14.40;99.90;;;;;;5073035;28;20294;-79
2021/09/17 01:10:55;;;;;;;38.30;21.27;;;14.30;99.90;;;;;;5082425;28;20236;-79
2021/09/17 01:13:23;;;;;;;42.50;23.00;;;14.40;99.90;;;;;;5072710;28;20204;-79
2021/09/17 01:15:50;;;;;;;37.23;20.93;;;14.50;99.90;;;;;;5072700;28;20286;-79
2021/09/17 01:18:18;;;;;;;42.40;23.03;;;14.50;99.90;;;;;;5072720;28;20723;-79
2021/09/17 01:20:45;;;;;;;43.63;25.37;;;14.40;99.90;;;;;;5072792;28;20208;-79
2021/09/17 01:23:13;;;;;;;46.73;25.03;;;14.50;99.90;;;;;;5073003;28;20282;-79
2021/09/17 01:25:41;;;;;;;46.67;26.33;;;14.50;99.90;;;;;;5072819;28;20203;-79
2021/09/17 01:28:08;;;;;;;43.10;26.33;;;14.50;99.90;;;;;;5072363;28;20724;-79
2021/09/17 01:30:35;;;;;;;41.57;25.83;;;14.50;99.90;;;;;;5072681;28;20290;-79
2021/09/17 01:33:02;;;;;;;41.33;25.33;;;14.50;99.90;;;;;;5072279;28;20587;-79
2021/09/17 01:35:29;;;;;;;43.47;25.93;;;14.40;99.90;;;;;;5072841;28;20289;-79
2021/09/17 01:37:57;;;;;;;47.23;27.53;;;14.50;99.90;;;;;;5072373;28;20199;-79
2021/09/17 01:40:25;;;;;;;53.03;27.77;;;14.50;99.90;;;;;;5072827;28;20287;-79
2021/09/17 01:42:53;;;;;;;49.63;28.10;;;14.50;99.90;;;;;;5072460;28;20290;-79
2021/09/17 01:45:20;;;;;;;43.70;26.97;;;14.50;99.90;;;;;;5066885;28;20201;-79
2021/09/17 01:47:47;;;;;;;49.10;28.80;;;14.60;99.90;;;;;;5053474;28;20210;-79
2021/09/17 01:50:15;;;;;;;55.83;30.67;;;14.50;99.90;;;;;;5053976;28;20200;-79
2021/09/17 01:52:42;;;;;;;49.67;28.57;;;14.60;99.90;;;;;;5053219;28;20311;-79
2021/09/17 01:55:11;;;;;;;52.33;29.77;;;14.60;99.90;;;;;;5054339;28;20282;-79
2021/09/17 01:57:39;;;;;;;51.13;29.20;;;14.60;99.90;;;;;;5053158;28;20214;-79
2021/09/17 02:00:08;;;;;;;51.50;30.97;;;14.60;99.90;;;;;;5053887;28;20200;-78
2021/09/17 02:02:35;;;;;;;51.23;29.77;;;14.50;99.90;;;;;;5053299;28;20295;-79
2021/09/17 02:05:03;;;;;;;55.40;30.50;;;14.60;99.90;;;;;;5054042;28;20204;-79
2021/09/17 02:07:30;;;;;;;52.43;30.63;;;14.60;99.90;;;;;;5059479;28;20278;-79
2021/09/17 02:09:57;;;;;;;54.67;29.80;;;14.70;99.90;;;;;;5075960;28;20294;-79
2021/09/17 02:12:25;;;;;;;54.97;31.47;;;14.80;99.90;;;;;;5075703;28;20714;-78
2021/09/17 02:14:54;;;;;;;56.23;31.47;;;14.90;99.90;;;;;;5075828;28;20211;-79
2021/09/17 02:17:23;;;;;;;55.10;30.37;;;15.00;99.90;;;;;;5076187;28;20208;-79
2021/09/17 02:19:51;;;;;;;51.87;30.03;;;15.00;99.90;;;;;;5073711;28;20282;-79
2021/09/17 02:22:18;;;;;;;51.63;31.23;;;15.00;99.90;;;;;;5061357;28;20283;-79
2021/09/17 02:24:46;;;;;;;54.40;31.33;;;15.00;99.90;;;;;;5071182;28;20283;-79
2021/09/17 02:27:13;;;;;;;54.13;32.27;;;15.10;99.90;;;;;;5076030;28;20206;-79
2021/09/17 02:29:40;;;;;;;54.50;31.30;;;15.00;99.90;;;;;;5075678;28;20206;-79
2021/09/17 02:32:11;;;;;;;52.07;31.40;;;15.00;99.90;;;;;;5075738;28;20223;-78
2021/09/17 02:34:39;;;;;;;49.00;30.47;;;15.00;99.90;;;;;;5061731;28;20203;-78
2021/09/17 02:37:06;;;;;;;52.97;30.77;;;14.90;99.90;;;;;;5075962;28;20677;-78
2021/09/17 02:39:34;;;;;;;56.40;32.03;;;15.00;99.90;;;;;;5075696;28;20724;-79
2021/09/17 02:42:02;;;;;;;50.87;30.63;;;14.90;99.90;;;;;;5075680;28;20285;-79
2021/09/17 02:44:29;;;;;;;58.70;32.73;;;14.80;99.90;;;;;;5073604;28;20207;-79
2021/09/17 02:46:56;;;;;;;54.83;32.50;;;14.70;99.90;;;;;;5063741;28;20202;-79
2021/09/17 02:49:25;;;;;;;56.80;31.30;;;14.70;99.90;;;;;;5075711;28;20239;-79
2021/09/17 02:51:53;;;;;;;60.67;32.83;;;14.70;99.90;;;;;;5075688;28;20237;-79
2021/09/17 02:54:20;;;;;;;56.60;30.17;;;14.60;99.90;;;;;;5075795;28;20282;-79
2021/09/17 02:56:47;;;;;;;57.23;32.93;;;14.60;99.90;;;;;;5075377;28;20203;-79
2021/09/17 02:59:14;;;;;;;59.27;31.30;;;14.50;99.90;;;;;;5075418;28;20199;-79
2021/09/17 03:01:42;;;;;;;61.13;32.60;;;14.50;99.90;;;;;;5075535;28;20210;-79
2021/09/17 03:04:09;;;;;;;55.47;32.20;;;14.50;99.90;;;;;;5075335;28;20290;-79
2021/09/17 03:06:37;;;;;;;63.40;33.73;;;14.40;99.90;;;;;;5062007;28;20294;-79
2021/09/17 03:09:05;;;;;;;62.97;34.33;;;14.40;99.90;;;;;;5075567;28;20282;-79
2021/09/17 03:11:32;;;;;;;62.27;33.83;;;14.30;99.90;;;;;;5075074;28;20286;-79
2021/09/17 03:13:59;;;;;;;71.47;35.57;;;14.30;99.90;;;;;;5075155;28;20205;-79
2021/09/17 03:16:27;;;;;;;66.47;35.20;;;14.30;99.90;;;;;;5075098;28;20675;-79
2021/09/17 03:18:54;;;;;;;65.00;34.87;;;14.20;99.90;;;;;;5074989;28;20290;-79
2021/09/17 03:21:21;;;;;;;72.50;36.70;;;14.20;99.90;;;;;;5075188;28;20203;-79
2021/09/17 03:23:50;;;;;;;69.00;35.93;;;14.20;99.90;;;;;;5074882;28;20203;-79
2021/09/17 03:26:17;;;;;;;72.10;36.60;;;14.20;99.90;;;;;;5075000;28;20203;-79
2021/09/17 03:28:44;;;;;;;73.77;36.37;;;14.30;99.90;;;;;;5073751;28;20724;-79
2021/09/17 03:31:11;;;;;;;76.93;37.57;;;14.20;99.90;;;;;;5061631;28;20207;-79
2021/09/17 03:33:38;;;;;;;71.20;36.80;;;14.30;99.90;;;;;;5061427;28;20319;-79
2021/09/17 03:36:06;;;;;;;71.53;36.30;;;14.20;99.90;;;;;;5074033;28;20230;-79
2021/09/17 03:38:33;;;;;;;76.67;37.53;;;14.20;99.90;;;;;;5074648;28;20626;-79
2021/09/17 03:41:02;;;;;;;79.90;38.50;;;14.10;99.90;;;;;;5074540;28;20273;-79
2021/09/17 03:43:29;;;;;;;79.33;38.27;;;14.20;99.90;;;;;;5074331;28;20236;-79
2021/09/17 03:45:56;;;;;;;74.87;38.23;;;14.00;99.90;;;;;;5074534;28;20298;-79
2021/09/17 03:48:24;;;;;;;79.13;37.13;;;13.90;99.90;;;;;;5074178;28;20311;-79
2021/09/17 03:50:51;;;;;;;72.00;36.50;;;13.90;99.90;;;;;;5078583;28;20236;-79
2021/09/17 03:53:18;;;;;;;77.83;38.00;;;13.90;99.90;;;;;;5072972;28;20326;-80
2021/09/17 03:55:45;;;;;;;82.40;38.13;;;14.00;99.90;;;;;;5074292;28;20204;-79
2021/09/17 03:58:14;;;;;;;77.63;37.17;;;14.00;99.90;;;;;;5073824;28;20218;-79
2021/09/17 04:00:41;;;;;;;76.43;36.93;;;13.90;99.90;;;;;;5074412;28;20290;-80
2021/09/17 04:03:09;;;;;;;83.13;38.93;;;13.90;99.90;;;;;;5074386;28;20196;-79
2021/09/17 04:05:36;;;;;;;77.10;37.10;;;13.90;99.90;;;;;;5074064;28;20247;-79
2021/09/17 04:08:03;;;;;;;83.83;38.20;;;13.90;99.90;;;;;;5073888;28;20740;-79
2021/09/17 04:10:31;;;;;;;87.07;39.93;;;13.80;99.90;;;;;;5073938;28;20217;-79
2021/09/17 04:12:58;;;;;;;85.00;39.47;;;13.80;99.90;;;;;;5073532;28;20313;-79
2021/09/17 04:15:27;;;;;;;91.40;40.43;;;13.80;99.90;;;;;;5073679;28;20294;-79
2021/09/17 04:17:54;;;;;;;88.97;39.63;;;13.80;99.90;;;;;;5074005;28;20291;-79
2021/09/17 04:20:21;;;;;;;82.70;38.93;;;13.80;99.90;;;;;;5068140;28;20200;-79
2021/09/17 04:22:48;;;;;;;91.53;40.90;;;13.80;99.90;;;;;;5066138;28;20203;-79
2021/09/17 04:25:17;;;;;;;85.50;39.53;;;13.80;99.90;;;;;;5073511;28;20294;-79
2021/09/17 04:27:45;;;;;;;96.13;41.00;;;13.80;99.90;;;;;;5073201;28;20574;-79
2021/09/17 04:30:14;;;;;;;89.73;39.70;;;13.80;99.90;;;;;;5060756;28;20204;-80
2021/09/17 04:32:43;;;;;;;88.13;40.17;;;13.70;99.90;;;;;;5072641;28;20257;-79
2021/09/17 04:35:10;;;;;;;85.30;39.50;;;13.80;99.90;;;;;;5062229;28;20217;-79
2021/09/17 04:37:42;;;;;;;88.43;40.90;;;13.70;99.90;;;;;;5071280;28;20231;-79
2021/09/17 04:40:11;;;;;;;95.27;41.37;;;13.60;99.90;;;;;;5073354;28;20206;-79
2021/09/17 04:42:38;;;;;;;100.37;42.33;;;13.70;99.90;;;;;;5073670;28;20196;-79
2021/09/17 04:45:07;;;;;;;91.57;40.97;;;13.70;99.90;;;;;;5064349;28;20301;-79
2021/09/17 04:47:35;;;;;;;101.67;40.83;;;13.70;99.90;;;;;;5068992;28;20689;-79
2021/09/17 04:50:03;;;;;;;104.30;43.87;;;13.70;99.90;;;;;;5073360;28;20207;-79
2021/09/17 04:52:31;;;;;;;94.43;41.50;;;13.70;99.90;;;;;;5073168;28;20223;-79
2021/09/17 04:54:59;;;;;;;99.77;42.93;;;13.70;99.90;;;;;;5073538;28;20199;-79
2021/09/17 04:57:26;;;;;;;111.30;45.20;;;13.80;99.90;;;;;;5073304;28;20257;-79
2021/09/17 04:59:54;;;;;;;106.83;46.53;;;13.70;99.90;;;;;;5073027;28;20200;-79
2021/09/17 05:02:21;;;;;;;118.53;47.13;;;13.70;99.90;;;;;;5073104;28;20361;-79
2021/09/17 05:04:48;;;;;;;129.10;50.50;;;13.70;99.90;;;;;;5072958;28;20630;-79
2021/09/17 05:07:17;;;;;;;129.57;49.90;;;13.70;99.90;;;;;;5064117;28;20211;-79
2021/09/17 05:09:44;;;;;;;126.10;49.40;;;13.70;99.90;;;;;;5069496;28;20214;-79
2021/09/17 05:12:11;;;;;;;137.77;51.60;;;13.80;99.90;;;;;;5072823;28;20205;-79
2021/09/17 05:14:39;;;;;;;133.77;51.50;;;13.80;99.90;;;;;;5072558;28;20545;-79
2021/09/17 05:17:06;;;;;;;141.03;52.63;;;13.80;99.90;;;;;;5072970;28;20239;-79
2021/09/17 05:19:33;;;;;;;143.33;51.93;;;13.70;99.90;;;;;;5072706;28;20244;-79
2021/09/17 05:22:00;;;;;;;135.73;49.03;;;13.80;99.90;;;;;;5071498;28;20215;-79
2021/09/17 05:24:29;;;;;;;145.13;52.20;;;13.70;99.90;;;;;;5071957;28;20698;-80
2021/09/17 05:26:56;;;;;;;142.83;51.57;;;13.70;99.90;;;;;;5069377;28;20205;-79
2021/09/17 05:29:23;;;;;;;133.13;51.73;;;13.80;99.90;;;;;;5056737;28;20204;-79
2021/09/17 05:31:51;;;;;;;134.13;50.70;;;13.80;99.90;;;;;;5064188;28;20202;-79
2021/09/17 05:34:18;;;;;;;148.37;52.93;;;13.80;99.90;;;;;;5070689;28;20306;-79
2021/09/17 05:36:45;;;;;;;154.50;53.33;;;13.80;99.90;;;;;;5070814;28;20203;-79
2021/09/17 05:39:13;;;;;;;154.00;54.17;;;13.80;99.90;;;;;;5070249;28;20578;-80
2021/09/17 05:41:41;;;;;;;155.20;54.10;;;13.90;99.90;;;;;;5075274;28;20226;-80
2021/09/17 05:44:08;;;;;;;155.83;55.83;;;13.90;99.90;;;;;;5075454;28;20278;-79
2021/09/17 05:46:36;;;;;;;166.70;55.53;;;13.80;99.90;;;;;;5075814;28;20724;-79
2021/09/17 05:49:03;;;;;;;174.00;56.23;;;13.90;99.90;;;;;;5075627;28;20253;-80
2021/09/17 05:51:30;;;;;;;168.10;54.77;;;14.00;99.90;;;;;;5076310;28;20204;-81
2021/09/17 05:53:57;;;;;;;164.87;56.00;;;14.10;99.90;;;;;;5075849;28;20223;-80
2021/09/17 05:56:26;;;;;;;164.80;58.57;;;14.10;99.90;;;;;;5076244;28;20251;-81
2021/09/17 05:58:54;;;;;;;178.77;57.70;;;14.10;99.90;;;;;;5076009;28;20231;-80
2021/09/17 06:01:22;;;;;;;177.87;57.23;;;14.10;99.90;;;;;;5075819;28;20202;-80
2021/09/17 06:03:49;;;;;;;181.23;58.60;;;14.20;99.90;;;;;;5075879;28;20257;-80
2021/09/17 06:06:18;;;;;;;184.27;60.17;;;14.30;99.90;;;;;;5075825;28;20210;-80
2021/09/17 06:08:45;;;;;;;184.60;60.23;;;14.30;99.90;;;;;;5086288;28;20293;-80
2021/09/17 06:11:13;;;;;;;198.23;61.07;;;14.30;99.90;;;;;;5082056;28;20302;-80
2021/09/17 06:13:40;;;;;;;173.47;58.50;;;14.40;99.90;;;;;;5075549;28;20308;-81
2021/09/17 06:16:08;;;;;;;194.13;59.90;;;14.50;99.90;;;;;;5077769;28;20609;-80
2021/09/17 06:18:36;;;;;;;194.73;62.53;;;14.50;99.90;;;;;;5092456;28;20668;-80
2021/09/17 06:21:03;;;;;;;188.70;62.73;;;14.50;99.90;;;;;;5086995;28;20296;-80
2021/09/17 06:23:30;;;;;;;185.97;59.33;;;14.50;99.90;;;;;;5063716;28;20283;-80
2021/09/17 06:25:57;;;;;;;193.97;62.57;;;14.50;99.90;;;;;;5073003;28;20290;-80
2021/09/17 06:28:25;;;;;;;189.13;59.77;;;14.50;99.90;;;;;;5074817;28;20215;-80
2021/09/17 06:30:52;;;;;;;191.17;61.00;;;14.50;99.90;;;;;;5075030;28;20286;-80
2021/09/17 06:33:21;;;;;;;178.83;58.37;;;14.60;99.90;;;;;;5074440;28;20595;-80
2021/09/17 06:35:48;;;;;;;177.77;58.17;;;14.60;99.90;;;;;;5074430;28;20205;-80
2021/09/17 06:38:15;;;;;;;181.47;58.73;;;14.70;99.90;;;;;;5073569;28;20231;-80
2021/09/17 06:40:43;;;;;;;174.90;59.80;;;14.70;99.90;;;;;;5073544;28;20744;-80
2021/09/17 06:43:10;;;;;;;190.67;59.13;;;14.80;99.90;;;;;;5073301;28;20282;-80
2021/09/17 06:45:37;;;;;;;179.83;58.00;;;14.80;99.90;;;;;;5074058;28;20275;-80
2021/09/17 06:48:05;;;;;;;183.07;59.27;;;14.90;99.90;;;;;;5076568;28;20780;-80
2021/09/17 06:50:34;;;;;;;183.67;58.07;;;14.90;99.90;;;;;;5073077;28;20282;-80
2021/09/17 06:53:03;;;;;;;180.57;57.07;;;14.90;99.90;;;;;;5071455;28;20338;-80
2021/09/17 06:55:32;;;;;;;164.37;57.83;;;15.00;99.90;;;;;;5061332;28;20791;-80
2021/09/17 06:58:01;;;;;;;170.33;57.60;;;15.00;99.90;;;;;;5074113;28;20199;-77
2021/09/17 07:00:30;;;;;;;173.67;55.67;;;15.10;99.90;;;;;;5072449;28;20199;-77
2021/09/17 07:02:58;;;;;;;156.07;53.93;;;15.20;99.90;;;;;;5072154;28;20623;-80
2021/09/17 07:05:26;;;;;;;151.33;54.70;;;15.30;99.90;;;;;;5073348;28;20203;-79
2021/09/17 07:08:00;;;;;;;146.63;53.00;;;15.40;99.90;;;;;;5075075;28;20287;-80
2021/09/17 07:10:28;;;;;;;137.80;51.03;;;15.50;99.90;;;;;;5072747;28;20190;-80
2021/09/17 07:12:55;;;;;;;126.93;50.27;;;15.60;99.90;;;;;;5073077;28;20282;-80
2021/09/17 07:15:22;;;;;;;120.10;48.07;;;15.60;99.90;;;;;;5072561;28;20238;-80
2021/09/17 07:17:50;;;;;;;118.17;46.43;;;15.70;99.90;;;;;;5073178;28;20611;-80
2021/09/17 07:20:17;;;;;;;107.20;43.53;;;15.80;99.90;;;;;;5072432;28;20295;-80
2021/09/17 07:22:45;;;;;;;106.50;45.13;;;15.80;99.90;;;;;;5072426;28;20610;-80
2021/09/17 07:25:15;;;;;;;104.23;44.70;;;15.80;99.90;;;;;;5075903;28;20192;-80
2021/09/17 07:27:42;;;;;;;104.53;43.60;;;15.80;99.90;;;;;;5072931;28;20747;-80
2021/09/17 07:30:10;;;;;;;95.23;42.43;;;15.90;99.90;;;;;;5072511;28;20204;-81
2021/09/17 07:32:38;;;;;;;90.63;40.97;;;16.00;99.90;;;;;;5029466;28;1226398;-80
2021/09/17 07:35:06;;;;;;;88.53;40.83;;;16.10;99.90;;;;;;5070952;28;20318;-79
2021/09/17 07:37:36;;;;;;;88.73;39.80;;;16.10;99.90;;;;;;5072606;28;20286;-81
2021/09/17 07:40:29;;;;;;;90.70;39.70;;;16.20;99.90;;;;;;5073254;28;20618;-83
2021/09/17 07:43:06;;;;;;;88.43;40.13;;;16.30;99.90;;;;;;5063980;28;20206;-80
2021/09/17 07:45:49;;;;;;;94.93;41.43;;;16.20;99.90;;;;;;5084315;28;20667;-81
2021/09/17 07:48:23;;;;;;;92.30;41.17;;;16.20;99.90;;;;;;5073798;28;20218;-82
2021/09/17 07:50:54;;;;;;;97.20;41.50;;;16.20;99.90;;;;;;5074303;28;20223;-81
2021/09/17 07:53:22;;;;;;;97.23;40.93;;;16.30;99.90;;;;;;5073915;28;20310;-76
2021/09/17 07:55:50;;;;;;;93.70;41.20;;;16.20;99.90;;;;;;5073987;28;20291;-77
2021/09/17 07:58:18;;;;;;;89.53;39.53;;;16.30;99.90;;;;;;5075915;28;20199;-77
2021/09/17 08:00:45;;;;;;;86.17;40.33;;;16.30;99.90;;;;;;5078008;28;20377;-78
2021/09/17 08:03:12;;;;;;;86.83;40.63;;;16.30;99.90;;;;;;5073182;28;20688;-78
2021/09/17 08:05:39;;;;;;;90.27;39.63;;;16.30;99.90;;;;;;5073692;28;20235;-79
2021/09/17 08:08:06;;;;;;;84.47;39.97;;;16.40;99.90;;;;;;5072482;28;20282;-78
2021/09/17 08:10:34;;;;;;;83.60;38.43;;;16.50;99.90;;;;;;5073116;28;20280;-78
2021/09/17 08:13:02;;;;;;;93.00;40.20;;;16.60;99.90;;;;;;5072853;28;20207;-78
2021/09/17 08:15:29;;;;;;;94.90;39.70;;;16.70;99.90;;;;;;5073402;28;20627;-78
2021/09/17 08:17:57;;;;;;;82.77;37.30;;;16.70;99.90;;;;;;5073223;28;20199;-79
2021/09/17 08:20:24;;;;;;;88.10;38.50;;;16.70;99.90;;;;;;5073414;28;20278;-79
2021/09/17 08:22:51;;;;;;;81.43;37.73;;;16.90;99.90;;;;;;5073161;28;20246;-78
2021/09/17 08:25:19;;;;;;;82.50;37.43;;;17.00;99.90;;;;;;5072994;28;20282;-78
2021/09/17 08:27:46;;;;;;;72.80;35.90;;;17.10;99.90;;;;;;5073114;28;20287;-79
2021/09/17 08:30:16;;;;;;;71.97;35.27;;;17.20;99.90;;;;;;5071008;28;20209;-79
2021/09/17 08:32:43;;;;;;;72.57;34.97;;;17.30;99.90;;;;;;5060795;28;20209;-79
2021/09/17 08:35:11;;;;;;;74.23;34.97;;;17.40;99.90;;;;;;5071591;28;20838;-78
2021/09/17 08:37:39;;;;;;;69.67;34.97;;;17.40;99.90;;;;;;5071587;28;20200;-79
2021/09/17 08:40:08;;;;;;;79.23;36.70;;;17.50;99.90;;;;;;5072394;28;20290;-78
2021/09/17 08:42:37;;;;;;;73.90;34.97;;;17.50;99.90;;;;;;5083161;28;20286;-79
2021/09/17 08:45:05;;;;;;;71.37;33.93;;;17.60;99.90;;;;;;5093597;28;20290;-79
2021/09/17 08:47:33;;;;;;;67.27;34.30;;;17.70;99.90;;;;;;5093858;28;20207;-78
2021/09/17 08:50:01;;;;;;;70.53;32.63;;;17.70;99.90;;;;;;5092588;28;20224;-78
2021/09/17 08:52:28;;;;;;;68.43;32.07;;;17.80;99.90;;;;;;5093237;28;20289;-78
2021/09/17 08:54:55;;;;;;;67.87;32.67;;;17.80;99.90;;;;;;5078469;28;20212;-78
2021/09/17 08:57:22;;;;;;;70.50;33.27;;;18.00;99.90;;;;;;5073409;28;20250;-78
2021/09/17 08:59:49;;;;;;;75.70;34.07;;;18.10;99.90;;;;;;5073104;28;20204;-79
2021/09/17 09:02:25;;;;;;;67.63;32.33;;;18.20;99.90;;;;;;5072508;28;20294;-78
2021/09/17 09:04:58;;;;;;;62.73;30.53;;;18.40;99.90;;;;;;5072343;28;20228;-77
2021/09/17 09:07:31;;;;;;;65.57;31.83;;;18.60;99.90;;;;;;5073063;28;20210;-78
2021/09/17 09:10:06;;;;;;;62.70;29.80;;;18.70;99.90;;;;;;5073082;28;20314;-79
2021/09/17 09:12:33;;;;;;;61.40;28.23;;;18.80;99.90;;;;;;5072921;28;20190;-78
2021/09/17 09:15:14;;;;;;;59.33;28.07;;;18.90;99.90;;;;;;5072592;28;20235;-77
2021/09/17 09:17:41;;;;;;;58.83;29.60;;;19.10;99.90;;;;;;5072105;28;20199;-78
2021/09/17 09:20:24;;;;;;;52.17;26.37;;;19.20;99.90;;;;;;5072208;28;20202;-79
2021/09/17 09:23:10;;;;;;;50.93;26.27;;;19.30;99.90;;;;;;5071939;28;20231;-79
2021/09/17 09:25:50;;;;;;;46.13;24.30;;;19.40;99.90;;;;;;5071932;28;20720;-79
2021/09/17 09:28:19;;;;;;;47.90;26.03;;;19.50;99.90;;;;;;5070429;28;20278;-79
2021/09/17 09:30:47;;;;;;;45.10;24.33;;;19.50;99.90;;;;;;5072462;28;20235;-80
2021/09/17 09:33:31;;;;;;;45.63;24.93;;;19.60;99.90;;;;;;5072006;28;20298;-79
2021/09/17 09:36:02;;;;;;;46.43;24.80;;;19.70;99.90;;;;;;5072148;28;20672;-79
2021/09/17 09:38:42;;;;;;;41.40;22.50;;;19.80;99.90;;;;;;5072383;28;20282;-79
2021/09/17 09:41:12;;;;;;;47.77;23.27;;;19.80;99.90;;;;;;5072506;28;20282;-79
2021/09/17 09:43:42;;;;;;;38.87;21.13;;;20.00;99.90;;;;;;5072623;28;20231;-79
2021/09/17 09:46:27;;;;;;;37.10;20.73;;;20.30;99.90;;;;;;5071803;28;20282;-78
2021/09/17 09:49:25;;;;;;;38.10;21.27;;;20.90;99.90;;;;;;5072034;28;20270;-79
2021/09/17 09:51:56;;;;;;;37.30;21.40;;;21.80;99.90;;;;;;5072451;28;20611;-81
2021/09/17 09:54:24;;;;;;;34.20;19.08;;;23.10;99.90;;;;;;5077570;28;20640;-81
2021/09/17 09:56:53;;;;;;;31.48;19.10;;;24.40;99.90;;;;;;5079611;28;20194;-82
2021/09/17 09:59:25;;;;;;;27.83;18.00;;;25.10;99.90;;;;;;5082688;28;20295;-80
2021/09/17 10:01:54;;;;;;;32.33;20.67;;;25.60;99.90;;;;;;5082429;28;20199;-80
2021/09/17 10:04:23;;;;;;;30.80;20.17;;;26.60;99.90;;;;;;5080673;28;20192;-81
2021/09/17 10:07:03;;;;;;;29.33;18.20;;;27.30;99.90;;;;;;5079428;28;20191;-80
2021/09/17 10:09:31;;;;;;;30.83;19.73;;;28.00;99.90;;;;;;5081732;28;20206;-81
2021/09/17 10:12:00;;;;;;;25.33;16.90;;;27.70;99.90;;;;;;5082484;28;20282;-80
2021/09/17 10:14:29;;;;;;;26.75;17.42;;;27.90;99.90;;;;;;5081301;28;20249;-80
2021/09/17 10:16:58;;;;;;;25.27;16.80;;;28.60;99.90;;;;;;5080009;28;20191;-80
2021/09/17 10:19:27;;;;;;;26.45;16.75;;;29.00;99.90;;;;;;5078210;28;20192;-80
2021/09/17 10:21:56;;;;;;;18.50;13.73;;;29.50;99.90;;;;;;5077313;28;20279;-77
2021/09/17 10:24:39;;;;;;;18.85;13.05;;;29.30;99.90;;;;;;5080724;28;20192;-80
2021/09/17 10:27:09;;;;;;;24.60;16.50;;;29.70;99.90;;;;;;5084967;28;20191;-80
2021/09/17 10:29:39;;;;;;;24.27;15.60;;;30.20;99.90;;;;;;5086108;28;20230;-79
2021/09/17 10:32:10;;;;;;;19.98;12.90;;;30.20;99.90;;;;;;5081685;28;20192;-80
2021/09/17 10:34:40;;;;;;;19.10;13.40;;;30.50;99.90;;;;;;5083881;28;20255;-80
2021/09/17 10:37:09;;;;;;;12.98;9.00;;;30.60;99.90;;;;;;5086306;28;20195;-80
2021/09/17 10:39:38;;;;;;;13.93;9.60;;;30.50;99.90;;;;;;5085412;28;20282;-80
2021/09/17 10:42:14;;;;;;;17.25;10.18;;;30.50;99.90;;;;;;5084007;28;20279;-80
2021/09/17 10:45:20;;;;;;;12.82;9.23;;;31.00;99.90;;;;;;5084211;28;20273;-80
2021/09/17 10:48:00;;;;;;;12.95;10.00;;;31.50;99.90;;;;;;5061469;28;20271;-80
2021/09/17 10:50:49;;;;;;;15.68;10.63;;;31.20;99.90;;;;;;5084108;28;20211;-81
2021/09/17 10:54:06;;;;;;;15.40;11.68;;;30.90;99.90;;;;;;5082620;28;20257;-81
2021/09/17 10:57:11;;;;;;;15.40;10.45;;;31.00;99.90;;;;;;5081467;28;20206;-81
2021/09/17 10:59:53;;;;;;;14.23;11.27;;;30.90;99.90;;;;;;5083392;28;20234;-80
2021/09/17 11:02:39;;;;;;;14.25;9.20;;;30.90;99.90;;;;;;5083997;28;20591;-81
2021/09/17 11:05:17;;;;;;;13.63;9.52;;;30.90;99.90;;;;;;5085337;28;20231;-80
2021/09/17 11:07:45;;;;;;;12.05;8.93;;;29.70;99.90;;;;;;5085893;28;20223;-81
2021/09/17 11:10:35;;;;;;;11.48;9.13;;;30.20;99.90;;;;;;5081355;28;20222;-81
2021/09/17 11:13:09;;;;;;;11.25;8.68;;;30.70;99.90;;;;;;5080022;28;20199;-80
2021/09/17 11:15:36;;;;;;;8.88;7.60;;;30.40;99.90;;;;;;5082292;28;20305;-81
2021/09/17 11:18:08;;;;;;;10.63;7.68;;;30.60;99.90;;;;;;5083731;28;20226;-80
2021/09/17 11:20:36;;;;;;;11.10;8.18;;;30.40;99.90;;;;;;5077268;28;20199;-81
2021/09/17 11:23:04;;;;;;;9.32;7.65;;;30.40;99.90;;;;;;5085096;28;20672;-80
2021/09/17 11:25:35;;;;;;;8.52;7.63;;;30.50;99.90;;;;;;5080879;28;20226;-81
2021/09/17 11:28:04;;;;;;;10.27;8.27;;;30.70;99.90;;;;;;5083759;28;20667;-81
2021/09/17 11:30:35;;;;;;;10.05;8.20;;;30.40;99.90;;;;;;5083095;28;20231;-82
2021/09/17 11:33:17;;;;;;;8.35;7.25;;;30.20;99.90;;;;;;5083575;28;20281;-80
2021/09/17 11:35:44;;;;;;;8.57;7.30;;;29.80;99.90;;;;;;5084230;28;20227;-80
2021/09/17 11:38:13;;;;;;;11.15;7.32;;;29.70;99.90;;;;;;5084115;28;20218;-81
2021/09/17 11:40:51;;;;;;;8.75;7.22;;;29.40;99.90;;;;;;5084257;28;20234;-80
2021/09/17 11:43:18;;;;;;;11.05;8.13;;;29.00;99.90;;;;;;5078175;28;20207;-80
2021/09/17 11:45:48;;;;;;;10.43;7.90;;;28.60;99.90;;;;;;5060297;28;20303;-80
2021/09/17 11:48:21;;;;;;;9.82;7.15;;;28.60;99.90;;;;;;5063821;28;20703;-80
2021/09/17 11:50:49;;;;;;;9.80;6.97;;;28.50;99.90;;;;;;5073046;28;20195;-80
2021/09/17 11:53:16;;;;;;;9.93;7.13;;;28.30;99.90;;;;;;5073582;28;20297;-80
2021/09/17 11:55:44;;;;;;;6.93;5.30;;;28.30;99.90;;;;;;5077078;28;20294;-80
2021/09/17 11:58:11;;;;;;;7.10;5.80;;;28.10;99.90;;;;;;5081628;28;20327;-80
2021/09/17 12:00:39;;;;;;;12.75;10.05;;;28.00;99.90;;;;;;5081098;28;20636;-81
2021/09/17 12:03:11;;;;;;;13.45;10.13;;;27.70;99.90;;;;;;5083020;28;20199;-80
2021/09/17 12:05:41;;;;;;;13.32;10.98;;;27.70;99.90;;;;;;5082405;28;20210;-81
2021/09/17 12:08:09;;;;;;;14.77;10.60;;;27.70;99.90;;;;;;5078293;28;20195;-80
2021/09/17 12:10:38;;;;;;;13.68;10.63;;;27.30;99.90;;;;;;5084642;28;20285;-80
2021/09/17 12:13:07;;;;;;;16.55;12.23;;;27.70;99.90;;;;;;5078437;28;20698;-81
2021/09/17 12:15:37;;;;;;;15.98;12.18;;;27.10;99.90;;;;;;5075777;28;20771;-80
2021/09/17 12:18:06;;;;;;;13.32;11.35;;;26.70;99.90;;;;;;5076789;28;20195;-80
2021/09/17 12:20:42;;;;;;;11.73;8.75;;;26.10;99.90;;;;;;5081676;28;20715;-80
2021/09/17 12:23:11;;;;;;;11.27;8.82;;;26.30;99.90;;;;;;5083781;28;20277;-80
2021/09/17 12:25:38;;;;;;;9.80;8.38;;;26.70;99.90;;;;;;5079051;28;20278;-81
2021/09/17 12:28:08;;;;;;;12.10;9.20;;;26.90;99.90;;;;;;5083642;28;20278;-81
2021/09/17 12:30:37;;;;;;;10.80;8.05;;;26.60;99.90;;;;;;5077074;28;20231;-80
2021/09/17 12:33:11;;;;;;;9.05;7.53;;;26.50;99.90;;;;;;5084725;28;20286;-81
2021/09/17 12:35:39;;;;;;;9.88;7.50;;;26.40;99.90;;;;;;5093645;28;20703;-80
2021/09/17 12:38:09;;;;;;;6.75;5.88;;;26.30;99.90;;;;;;5093575;28;20293;-80